Crooked Lake, Indiana
Current Conditions -  °F | °C
As of 7:35 AM on Sunday 28 Dec 2014 (Local Time) from KANQ Reporting Station
Overcast Overcast  
Wind Chill: 27°   Ceiling: 2200
Heat Index: 34°   Visibility: 10mi
Dew Point: 27°   Wind: 8mph
Humidity: 75%   Direction: 310°NW
Pressure: 30.08"   Gusts: NA
Location:  41.6594°N, 85.0055°W
Report Text: KANQ 281235Z AUTO 31007KT 10SM OVC022 01/M03 A3008 RMK
Loading
Personal Weather Stations






























Interactive Weather Map New forecast layout! Learn more

10-Day Weather Forecast

Advertisements
Track Severe Weather on mobile